Portada
METAR-TAF:

METAR-TAF

Aeroports :

Udon Thani, Tailàndia

latitud: 17-23N, longitud: 102-48E, altitud: 177 m

Observació

L'informe es va fer fa 2 hores i 35 minuts, a les 15:00 UTC
Vent 4 kt del Est
Temperatura 27°C
Humitat 79%
Pressió 1012 hPa
Visibilitat: 9000 m
Escasses núvols a una alçada de 300 ft

METAR: VTUD 211500Z 10004KT 9000 FEW003 27/23 Q1012 NOSIG

Hora: 00:35 (17:35 UTC)

Pronòstic

L'informe es va fer fa 6 hores i 35 minuts, a les 11:00 UTC
Pronòstic vàlid del 21 a les 12 UTC al 22 a les 12 UTC
Vent 6 kt del Est
Visibilitat 10 km o més
Escasses núvols a una alçada de 3000 ft
Núvols disperses a una alçada de 10000 ft

TAF: VTUD 211100Z 2112/2212 08006KT 9999 FEW030 SCT100

Observacions i pronòstics meteorològics de més de 4000 aeroports (METAR i TAF).

Les estacions disponibles són els punts grocs i vermells al mapa.

Posi el ratolí al punt desitjat per veure el nom de l'estació.

Feu clic per veure les observacions i els pronòstics meteorològics.

Per canviar el mapa: feu clic els botons verds amb una creu de color negre per apropar; al botó verd amb un guió per allunyar la imatge; o en les fletxes verdes per a mapes adjacents.


METAR-TAF: